createdAt,value
2023-07-06T00:01:58.454Z,15.20
2023-07-06T00:04:26.055Z,13.75
2023-07-06T00:06:53.595Z,13.20
2023-07-06T00:09:21.661Z,14.25
2023-07-06T00:12:01.107Z,13.73
2023-07-06T00:14:29.720Z,14.38
2023-07-06T00:20:14.131Z,15.07
2023-07-06T00:22:41.631Z,15.02
2023-07-06T00:25:10.073Z,16.60
2023-07-06T00:27:38.897Z,15.60
2023-07-06T00:30:19.289Z,17.08
2023-07-06T00:32:49.006Z,17.17
2023-07-06T00:35:17.502Z,17.85
2023-07-06T00:37:45.005Z,18.60
2023-07-06T00:40:14.880Z,16.98
2023-07-06T00:42:46.818Z,18.92
2023-07-06T00:45:16.489Z,19.48
2023-07-06T00:50:33.467Z,17.25
2023-07-06T00:53:04.904Z,17.83
2023-07-06T00:55:35.240Z,17.95
2023-07-06T00:58:08.652Z,20.77
2023-07-06T01:03:47.625Z,21.85
2023-07-06T01:09:18.738Z,24.58
2023-07-06T01:11:46.869Z,23.45
2023-07-06T01:14:16.129Z,26.35
2023-07-06T01:16:45.562Z,26.75
2023-07-06T01:22:23.703Z,28.48
2023-07-06T01:25:03.193Z,29.55
2023-07-06T01:27:56.165Z,28.85
2023-07-06T01:30:46.832Z,28.80
2023-07-06T01:33:18.176Z,29.17
2023-07-06T01:35:49.648Z,28.42
2023-07-06T01:38:17.664Z,28.52
2023-07-06T01:43:47.469Z,26.90
2023-07-06T01:46:15.118Z,30.15
2023-07-06T01:51:57.244Z,28.75
2023-07-06T01:54:31.187Z,27.75
2023-07-06T02:00:06.837Z,25.60
2023-07-06T02:02:45.425Z,23.90
2023-07-06T02:05:14.894Z,24.77
2023-07-06T02:07:45.002Z,23.67
2023-07-06T02:10:16.558Z,23.35
2023-07-06T02:12:48.390Z,23.55
2023-07-06T02:15:17.559Z,22.73
2023-07-06T02:17:45.157Z,19.55
2023-07-06T02:20:13.588Z,21.88
2023-07-06T02:25:43.970Z,21.42
2023-07-06T02:28:11.483Z,20.58
2023-07-06T02:30:39.404Z,19.40
2023-07-06T02:33:07.103Z,20.38
2023-07-06T02:35:34.721Z,20.58
2023-07-06T02:38:02.888Z,20.92
2023-07-06T02:40:31.145Z,20.33
2023-07-06T02:46:00.942Z,18.38
2023-07-06T02:48:28.742Z,17.80
2023-07-06T02:50:56.539Z,17.40
2023-07-06T02:53:24.408Z,16.95
2023-07-06T02:55:52.780Z,16.08
2023-07-06T03:01:24.256Z,15.50
2023-07-06T03:03:52.319Z,14.98
2023-07-06T03:06:19.925Z,17.13
2023-07-06T03:08:48.652Z,16.80
2023-07-06T03:11:17.246Z,15.80
2023-07-06T03:13:44.798Z,16.77
2023-07-06T03:16:13.410Z,16.80
2023-07-06T03:18:45.075Z,17.20
2023-07-06T03:21:13.051Z,16.55
2023-07-06T03:23:40.581Z,15.68
2023-07-06T03:29:07.316Z,16.63
2023-07-06T03:31:35.245Z,17.48
2023-07-06T03:34:07.097Z,15.38
2023-07-06T03:36:34.907Z,16.42
2023-07-06T03:42:10.629Z,14.40
2023-07-06T03:47:40.773Z,13.30
2023-07-06T03:50:10.803Z,12.63
2023-07-06T03:52:39.035Z,13.55
2023-07-06T03:55:09.289Z,11.80
2023-07-06T03:57:40.237Z,11.02
2023-07-06T04:00:17.690Z,11.93
2023-07-06T04:05:37.720Z,10.65
2023-07-06T04:08:09.239Z,9.75
2023-07-06T04:13:31.331Z,11.48
2023-07-06T04:15:59.044Z,10.65
2023-07-06T04:21:32.020Z,9.98
2023-07-06T04:23:59.929Z,9.07
2023-07-06T04:26:27.408Z,9.52
2023-07-06T04:28:55.139Z,10.20
2023-07-06T04:31:22.708Z,11.32
2023-07-06T04:33:50.669Z,9.52
2023-07-06T04:36:19.418Z,10.00
2023-07-06T04:38:48.498Z,10.55
2023-07-06T04:41:16.262Z,9.85
2023-07-06T04:46:44.450Z,8.45
2023-07-06T04:49:11.981Z,8.60
2023-07-06T04:51:39.486Z,8.15
2023-07-06T04:54:09.757Z,8.85
2023-07-06T04:56:38.787Z,9.63
2023-07-06T04:59:06.305Z,8.90
2023-07-06T05:01:33.803Z,9.65
2023-07-06T05:04:02.429Z,9.73
2023-07-06T05:06:30.032Z,9.48
2023-07-06T05:08:57.564Z,9.10
2023-07-06T05:11:27.544Z,8.70
2023-07-06T05:13:55.052Z,9.32
2023-07-06T05:16:22.638Z,9.48
2023-07-06T05:18:50.405Z,8.55
2023-07-06T05:21:17.954Z,6.93
2023-07-06T05:23:45.480Z,8.02
2023-07-06T05:29:12.788Z,7.88
2023-07-06T05:31:40.274Z,6.57
2023-07-06T05:34:31.803Z,5.40
2023-07-06T05:36:59.537Z,3.78
2023-07-06T05:39:27.042Z,4.38
2023-07-06T05:41:54.546Z,3.85
2023-07-06T05:44:23.602Z,3.70
2023-07-06T05:46:51.175Z,4.50
2023-07-06T05:49:18.667Z,3.45
2023-07-06T05:51:46.162Z,3.88
2023-07-06T05:54:13.640Z,3.55
2023-07-06T05:56:42.560Z,3.47
2023-07-06T05:59:10.540Z,4.25
2023-07-06T06:01:39.549Z,4.38
2023-07-06T06:07:10.632Z,3.35
2023-07-06T06:09:38.297Z,4.55
2023-07-06T06:12:06.571Z,4.53
2023-07-06T06:14:35.526Z,4.28
2023-07-06T06:17:04.581Z,3.97
2023-07-06T06:19:47.581Z,4.07
2023-07-06T06:22:16.512Z,3.85
2023-07-06T06:24:45.868Z,3.35
2023-07-06T06:27:15.606Z,3.40
2023-07-06T06:29:44.260Z,4.05
2023-07-06T06:32:13.994Z,4.28
2023-07-06T06:37:40.474Z,3.38
2023-07-06T06:40:10.421Z,3.65
2023-07-06T06:42:40.424Z,3.28
2023-07-06T06:45:08.888Z,3.28
2023-07-06T06:47:37.733Z,3.00
2023-07-06T06:50:05.943Z,2.97
2023-07-06T06:55:31.457Z,3.15
2023-07-06T06:57:59.422Z,3.20
2023-07-06T07:00:26.957Z,3.13
2023-07-06T07:02:55.908Z,3.78
2023-07-06T07:05:23.405Z,2.55
2023-07-06T07:07:50.944Z,3.22
2023-07-06T07:10:18.785Z,2.97
2023-07-06T07:12:46.426Z,3.08
2023-07-06T07:15:15.501Z,2.90
2023-07-06T07:20:51.989Z,2.50
2023-07-06T07:23:22.057Z,3.15
2023-07-06T07:25:49.568Z,2.70
2023-07-06T07:28:18.452Z,3.00
2023-07-06T07:30:47.159Z,2.45
2023-07-06T07:33:14.638Z,2.28
2023-07-06T07:38:41.974Z,3.15
2023-07-06T07:41:12.602Z,2.88
2023-07-06T07:43:43.045Z,2.63
2023-07-06T07:46:12.963Z,2.10
2023-07-06T07:48:46.467Z,2.47
2023-07-06T07:51:42.579Z,2.10
2023-07-06T07:54:11.664Z,2.47
2023-07-06T07:56:39.556Z,2.25
2023-07-06T07:59:07.129Z,2.08
2023-07-06T08:01:34.903Z,2.30
2023-07-06T08:04:04.015Z,2.17
2023-07-06T08:06:31.811Z,2.83
2023-07-06T08:08:59.578Z,2.00
2023-07-06T08:11:29.942Z,2.20
2023-07-06T08:13:57.985Z,2.30
2023-07-06T08:16:26.106Z,1.70
2023-07-06T08:22:08.527Z,1.77
2023-07-06T08:24:38.639Z,2.47
2023-07-06T08:27:08.085Z,2.22
2023-07-06T08:29:35.757Z,2.13
2023-07-06T08:35:02.435Z,1.88
2023-07-06T08:37:29.898Z,1.88
2023-07-06T08:39:58.252Z,2.80
2023-07-06T08:42:27.307Z,2.30
2023-07-06T08:44:56.545Z,1.83
2023-07-06T08:47:27.414Z,2.30
2023-07-06T08:49:55.824Z,1.48
2023-07-06T08:55:16.346Z,1.83
2023-07-06T08:57:47.071Z,1.70
2023-07-06T09:00:22.952Z,2.38
2023-07-06T09:02:51.484Z,2.03
2023-07-06T09:08:07.590Z,2.20
2023-07-06T09:10:35.472Z,1.52
2023-07-06T09:13:15.932Z,1.80
2023-07-06T09:15:45.388Z,1.70
2023-07-06T09:18:15.595Z,2.00
2023-07-06T09:20:45.947Z,2.42
2023-07-06T09:23:15.689Z,1.83
2023-07-06T09:25:45.198Z,1.77
2023-07-06T09:28:19.085Z,1.73
2023-07-06T09:30:49.044Z,1.70
2023-07-06T09:33:19.726Z,1.90
2023-07-06T09:35:48.207Z,1.80
2023-07-06T09:38:17.772Z,1.90
2023-07-06T09:43:51.282Z,2.47
2023-07-06T09:46:18.827Z,2.28
2023-07-06T09:48:46.443Z,1.67
2023-07-06T09:51:15.531Z,1.90
2023-07-06T09:56:30.335Z,1.63
2023-07-06T09:58:59.562Z,1.83
2023-07-06T10:01:35.597Z,2.95
2023-07-06T10:04:24.423Z,2.10
2023-07-06T10:10:11.299Z,1.80
2023-07-06T10:12:42.319Z,1.85
2023-07-06T10:18:04.935Z,1.50
2023-07-06T10:20:36.397Z,3.05
2023-07-06T10:23:14.729Z,2.35
2023-07-06T10:25:47.420Z,1.40
2023-07-06T10:28:18.071Z,2.30
2023-07-06T10:30:50.496Z,2.40
2023-07-06T10:36:11.151Z,1.10
2023-07-06T10:38:38.685Z,1.45
2023-07-06T10:41:23.867Z,2.22
2023-07-06T10:43:52.562Z,1.45
2023-07-06T10:46:31.823Z,1.80
2023-07-06T10:49:00.305Z,1.30
2023-07-06T10:51:29.542Z,1.83
2023-07-06T10:57:01.984Z,1.48
2023-07-06T10:59:38.641Z,1.70
2023-07-06T11:02:25.761Z,1.30
2023-07-06T11:04:59.260Z,1.27
2023-07-06T11:07:43.651Z,1.67
2023-07-06T11:10:22.747Z,1.30
2023-07-06T11:12:56.505Z,1.80
2023-07-06T11:15:27.921Z,1.60
2023-07-06T11:17:56.868Z,1.42
2023-07-06T11:20:25.882Z,2.40
2023-07-06T11:22:58.682Z,1.40
2023-07-06T11:25:29.232Z,1.20
2023-07-06T11:28:00.581Z,2.00
2023-07-06T11:33:25.926Z,1.50
2023-07-06T11:36:02.770Z,1.40
2023-07-06T11:38:54.568Z,1.27
2023-07-06T11:41:32.157Z,1.48
2023-07-06T11:44:25.101Z,1.30
2023-07-06T11:47:08.948Z,1.20
2023-07-06T11:49:43.522Z,1.40
2023-07-06T11:52:14.990Z,1.30
2023-07-06T11:54:52.633Z,1.42
2023-07-06T11:57:42.825Z,1.40
2023-07-06T12:00:23.710Z,1.20
2023-07-06T12:03:02.348Z,1.45
2023-07-06T12:05:31.826Z,1.30
2023-07-06T12:08:01.192Z,1.88
2023-07-06T12:10:32.080Z,1.55
2023-07-06T12:12:59.832Z,1.10
2023-07-06T12:15:27.918Z,1.50
2023-07-06T12:17:57.623Z,1.10
2023-07-06T12:20:26.813Z,1.20
2023-07-06T12:22:57.961Z,1.50
2023-07-06T12:25:28.064Z,1.30
2023-07-06T12:28:01.591Z,1.40
2023-07-06T12:30:35.125Z,1.13
2023-07-06T12:33:06.210Z,2.10
2023-07-06T12:35:50.191Z,1.00
2023-07-06T12:38:20.695Z,0.98
2023-07-06T12:40:49.326Z,1.38
2023-07-06T12:43:33.914Z,1.00
2023-07-06T12:46:01.630Z,1.90
2023-07-06T12:48:29.186Z,1.70
2023-07-06T12:50:57.056Z,1.60
2023-07-06T12:56:30.159Z,1.20
2023-07-06T12:59:02.142Z,1.75
2023-07-06T13:01:34.352Z,1.40
2023-07-06T13:04:09.131Z,1.10
2023-07-06T13:06:44.457Z,0.88
2023-07-06T13:12:19.755Z,1.20
2023-07-06T13:14:49.272Z,1.50
2023-07-06T13:17:19.386Z,1.38
2023-07-06T13:19:48.155Z,1.10
2023-07-06T13:25:05.074Z,1.42
2023-07-06T13:27:33.658Z,0.98
2023-07-06T13:30:02.495Z,1.63
2023-07-06T13:32:30.653Z,2.08
2023-07-06T13:34:58.158Z,1.20
2023-07-06T13:37:30.339Z,1.65
2023-07-06T13:40:00.837Z,1.30
2023-07-06T13:42:30.260Z,1.25
2023-07-06T13:44:59.274Z,1.40
2023-07-06T13:50:27.284Z,1.65
2023-07-06T13:52:54.801Z,1.48
2023-07-06T13:55:25.770Z,1.30
2023-07-06T13:57:53.264Z,1.48
2023-07-06T14:03:00.743Z,1.40
2023-07-06T14:05:31.113Z,1.85
2023-07-06T14:07:58.671Z,1.45
2023-07-06T14:10:27.442Z,1.38
2023-07-06T14:12:55.175Z,1.23
2023-07-06T14:18:27.676Z,1.30
2023-07-06T14:21:00.876Z,1.58
2023-07-06T14:23:29.000Z,1.80
2023-07-06T14:25:57.119Z,1.10
2023-07-06T14:28:27.556Z,1.42
2023-07-06T14:33:43.568Z,1.40
2023-07-06T14:36:12.626Z,1.42
2023-07-06T14:38:41.094Z,1.30
2023-07-06T14:41:09.184Z,1.08
2023-07-06T14:43:36.685Z,1.35
2023-07-06T14:46:06.497Z,1.38
2023-07-06T14:48:34.235Z,1.38
2023-07-06T14:51:06.196Z,1.50
2023-07-06T14:53:36.378Z,1.70
2023-07-06T14:56:04.622Z,2.05
2023-07-06T14:58:32.468Z,1.60
2023-07-06T15:01:00.023Z,1.30
2023-07-06T15:03:27.583Z,1.10
2023-07-06T15:05:55.143Z,1.20
2023-07-06T15:08:22.711Z,2.35
2023-07-06T15:10:53.291Z,2.15
2023-07-06T15:13:20.804Z,2.28
2023-07-06T15:15:48.319Z,1.23
2023-07-06T15:18:15.855Z,1.38
2023-07-06T15:20:43.525Z,1.33
2023-07-06T15:26:12.129Z,1.55
2023-07-06T15:28:39.675Z,1.55
2023-07-06T15:31:07.216Z,1.70
2023-07-06T15:33:34.776Z,1.67
2023-07-06T15:39:02.205Z,1.20
2023-07-06T15:41:33.771Z,1.40
2023-07-06T15:44:01.578Z,1.20
2023-07-06T15:46:30.871Z,1.38
2023-07-06T15:48:58.794Z,1.98
2023-07-06T15:51:27.209Z,1.13
2023-07-06T15:53:54.782Z,1.40
2023-07-06T15:56:22.364Z,1.45
2023-07-06T15:59:00.807Z,1.50
2023-07-06T16:01:28.772Z,1.40
2023-07-06T16:03:56.610Z,1.52
2023-07-06T16:06:24.330Z,2.67
2023-07-06T16:08:51.863Z,2.65
2023-07-06T16:14:19.401Z,1.10
2023-07-06T16:16:48.244Z,1.35
2023-07-06T16:22:05.078Z,1.90
2023-07-06T16:24:32.570Z,1.55
2023-07-06T16:27:00.111Z,1.42
2023-07-06T16:32:34.075Z,1.40
2023-07-06T16:35:01.843Z,1.50
2023-07-06T16:37:29.393Z,1.23
2023-07-06T16:39:56.931Z,1.63
2023-07-06T16:42:24.506Z,1.40
2023-07-06T16:47:51.527Z,1.40
2023-07-06T16:50:19.040Z,2.03
2023-07-06T16:52:46.552Z,1.77
2023-07-06T16:55:14.083Z,1.48
2023-07-06T16:58:05.522Z,1.35
2023-07-06T17:00:33.195Z,1.30
2023-07-06T17:06:05.297Z,1.42
2023-07-06T17:08:33.078Z,1.50
2023-07-06T17:13:57.677Z,1.90
2023-07-06T17:16:25.367Z,2.00
2023-07-06T17:18:52.910Z,1.42
2023-07-06T17:21:21.763Z,1.25
2023-07-06T17:23:49.257Z,1.65
2023-07-06T17:26:16.739Z,1.50
2023-07-06T17:31:42.629Z,1.40
2023-07-06T17:34:10.131Z,1.63
2023-07-06T17:39:39.883Z,1.40
2023-07-06T17:42:07.451Z,1.50
2023-07-06T17:44:34.946Z,1.67
2023-07-06T17:47:02.428Z,1.27
2023-07-06T17:49:29.978Z,1.50
2023-07-06T17:51:57.509Z,1.00
2023-07-06T17:54:25.015Z,1.38
2023-07-06T17:56:53.897Z,1.40
2023-07-06T17:59:21.460Z,1.40
2023-07-06T18:01:49.253Z,1.50
2023-07-06T18:04:16.857Z,1.27
2023-07-06T18:06:44.382Z,1.10
2023-07-06T18:09:12.582Z,1.70
2023-07-06T18:11:54.312Z,1.40
2023-07-06T18:14:23.127Z,1.42
2023-07-06T18:16:50.772Z,1.20
2023-07-06T18:19:18.355Z,1.90
2023-07-06T18:21:47.919Z,1.35
2023-07-06T18:24:15.498Z,1.55
2023-07-06T18:26:43.021Z,1.30
2023-07-06T18:29:10.520Z,1.50
2023-07-06T18:31:39.669Z,2.10
2023-07-06T18:34:07.392Z,1.45
2023-07-06T18:36:35.506Z,1.70
2023-07-06T18:39:05.400Z,1.60
2023-07-06T18:41:32.948Z,1.40
2023-07-06T18:44:00.479Z,1.42
2023-07-06T18:49:31.991Z,1.50
2023-07-06T18:51:59.863Z,1.50
2023-07-06T18:54:27.372Z,1.42
2023-07-06T18:56:54.852Z,1.40
2023-07-06T18:59:22.724Z,1.63
2023-07-06T19:04:41.469Z,1.73
2023-07-06T19:07:09.091Z,1.70
2023-07-06T19:09:36.724Z,2.20
2023-07-06T19:12:05.135Z,1.40
2023-07-06T19:14:32.694Z,1.90
2023-07-06T19:17:00.247Z,1.90
2023-07-06T19:22:28.027Z,1.92
2023-07-06T19:24:55.611Z,1.88
2023-07-06T19:27:23.144Z,1.50
2023-07-06T19:29:51.343Z,1.88
2023-07-06T19:32:18.833Z,1.70
2023-07-06T19:34:46.324Z,1.83
2023-07-06T19:37:15.454Z,2.10
2023-07-06T19:39:45.144Z,1.85
2023-07-06T19:42:12.618Z,2.22
2023-07-06T19:44:40.175Z,1.80
2023-07-06T19:47:07.737Z,1.83
2023-07-06T19:49:35.290Z,2.13
2023-07-06T19:55:02.968Z,2.08
2023-07-06T19:57:43.335Z,2.00
2023-07-06T20:00:13.291Z,1.90
2023-07-06T20:02:41.307Z,1.92
2023-07-06T20:05:09.870Z,2.03
2023-07-06T20:07:37.995Z,1.80
2023-07-06T20:10:08.509Z,1.95
2023-07-06T20:12:36.394Z,1.70
2023-07-06T20:15:05.012Z,1.88
2023-07-06T20:17:32.563Z,1.45
2023-07-06T20:20:00.062Z,1.88
2023-07-06T20:25:35.710Z,2.25
2023-07-06T20:31:07.412Z,2.10
2023-07-06T20:33:35.118Z,2.20
2023-07-06T20:36:05.410Z,2.45
2023-07-06T20:38:32.935Z,2.42
2023-07-06T20:41:01.839Z,2.13
2023-07-06T20:43:31.690Z,2.78
2023-07-06T20:45:59.241Z,2.50
2023-07-06T20:48:26.774Z,1.92
2023-07-06T20:50:55.381Z,2.38
2023-07-06T20:56:22.986Z,2.33
2023-07-06T20:58:50.504Z,2.28
2023-07-06T21:01:18.054Z,2.45
2023-07-06T21:03:46.096Z,2.03
2023-07-06T21:06:15.114Z,1.45
2023-07-06T21:08:42.635Z,2.53
2023-07-06T21:11:10.877Z,1.95
2023-07-06T21:13:39.740Z,1.60
2023-07-06T21:16:07.471Z,1.65
2023-07-06T21:21:23.626Z,2.20
2023-07-06T21:23:51.167Z,1.90
2023-07-06T21:26:18.689Z,2.70
2023-07-06T21:28:47.511Z,2.20
2023-07-06T21:31:15.014Z,2.42
2023-07-06T21:33:42.891Z,2.83
2023-07-06T21:36:11.016Z,2.63
2023-07-06T21:41:35.293Z,2.50
2023-07-06T21:44:05.435Z,1.90
2023-07-06T21:46:33.267Z,2.40
2023-07-06T21:49:00.889Z,2.20
2023-07-06T21:51:45.396Z,1.80
2023-07-06T21:54:13.220Z,2.40
2023-07-06T21:56:40.698Z,2.15
2023-07-06T21:59:09.484Z,2.25
2023-07-06T22:01:37.048Z,2.33
2023-07-06T22:06:51.652Z,2.50
2023-07-06T22:09:19.144Z,1.80
2023-07-06T22:11:46.692Z,2.63
2023-07-06T22:14:15.530Z,2.58
2023-07-06T22:16:43.054Z,2.00
2023-07-06T22:19:10.563Z,2.60
2023-07-06T22:21:38.224Z,2.70
2023-07-06T22:24:07.719Z,2.92
2023-07-06T22:26:35.269Z,2.58
2023-07-06T22:29:02.781Z,2.80
2023-07-06T22:31:31.730Z,2.13
2023-07-06T22:33:59.353Z,2.55
2023-07-06T22:36:26.911Z,2.97
2023-07-06T22:38:54.382Z,3.30
2023-07-06T22:41:21.867Z,3.03
2023-07-06T22:43:49.368Z,3.55
2023-07-06T22:46:16.913Z,3.63
2023-07-06T22:48:46.101Z,4.10
2023-07-06T22:51:13.571Z,3.53
2023-07-06T22:56:48.302Z,3.75
2023-07-06T22:59:16.264Z,4.80
2023-07-06T23:04:44.396Z,5.03
2023-07-06T23:07:11.867Z,4.82
2023-07-06T23:09:39.387Z,5.32
2023-07-06T23:12:08.847Z,4.53
2023-07-06T23:14:36.418Z,5.53
2023-07-06T23:17:04.272Z,5.82
2023-07-06T23:22:21.990Z,4.97
2023-07-06T23:24:49.542Z,5.63
2023-07-06T23:27:18.673Z,5.50
2023-07-06T23:29:46.286Z,5.35
2023-07-06T23:32:13.777Z,5.85
2023-07-06T23:34:41.277Z,4.57
2023-07-06T23:37:08.803Z,5.18
2023-07-06T23:39:37.931Z,5.40
2023-07-06T23:42:06.136Z,5.45
2023-07-06T23:44:33.638Z,4.43
2023-07-06T23:47:01.145Z,5.20
2023-07-06T23:49:28.648Z,6.22
2023-07-06T23:51:56.124Z,5.85
2023-07-06T23:54:25.572Z,5.85
2023-07-06T23:56:54.708Z,5.45
2023-07-06T23:59:22.860Z,5.75
